sensor_id;sensor_type;location;lat;lon;timestamp;P1;durP1;ratioP1;P2;durP2;ratioP2
10880;SDS011;5493;48.884;8.338;2022-11-14T00:00:21;8.03;;;4.87;;
10880;SDS011;5493;48.884;8.338;2022-11-14T00:02:47;8.60;;;5.10;;
10880;SDS011;5493;48.884;8.338;2022-11-14T00:05:14;8.00;;;5.10;;
10880;SDS011;5493;48.884;8.338;2022-11-14T00:07:42;8.43;;;5.37;;
10880;SDS011;5493;48.884;8.338;2022-11-14T00:10:08;8.43;;;4.40;;
10880;SDS011;5493;48.884;8.338;2022-11-14T00:12:35;8.67;;;4.80;;
10880;SDS011;5493;48.884;8.338;2022-11-14T00:15:02;9.93;;;5.30;;
10880;SDS011;5493;48.884;8.338;2022-11-14T00:17:29;7.07;;;4.60;;
10880;SDS011;5493;48.884;8.338;2022-11-14T00:19:55;6.33;;;4.57;;
10880;SDS011;5493;48.884;8.338;2022-11-14T00:22:22;6.97;;;4.80;;
10880;SDS011;5493;48.884;8.338;2022-11-14T00:24:50;5.60;;;4.27;;
10880;SDS011;5493;48.884;8.338;2022-11-14T00:27:16;6.80;;;4.43;;
10880;SDS011;5493;48.884;8.338;2022-11-14T00:29:43;6.80;;;4.47;;
10880;SDS011;5493;48.884;8.338;2022-11-14T00:32:09;7.57;;;4.73;;
10880;SDS011;5493;48.884;8.338;2022-11-14T00:34:36;7.07;;;4.93;;
10880;SDS011;5493;48.884;8.338;2022-11-14T00:37:03;7.73;;;4.63;;
10880;SDS011;5493;48.884;8.338;2022-11-14T00:39:29;7.60;;;4.83;;
10880;SDS011;5493;48.884;8.338;2022-11-14T00:41:57;5.57;;;4.23;;
10880;SDS011;5493;48.884;8.338;2022-11-14T00:44:24;6.37;;;4.40;;
10880;SDS011;5493;48.884;8.338;2022-11-14T00:46:51;6.53;;;4.37;;
10880;SDS011;5493;48.884;8.338;2022-11-14T00:49:17;9.27;;;4.87;;
10880;SDS011;5493;48.884;8.338;2022-11-14T00:51:44;6.40;;;4.43;;
10880;SDS011;5493;48.884;8.338;2022-11-14T00:54:11;7.27;;;4.67;;
10880;SDS011;5493;48.884;8.338;2022-11-14T00:56:37;7.30;;;5.10;;
10880;SDS011;5493;48.884;8.338;2022-11-14T00:59:05;6.27;;;4.57;;
10880;SDS011;5493;48.884;8.338;2022-11-14T01:01:32;7.37;;;4.60;;
10880;SDS011;5493;48.884;8.338;2022-11-14T01:03:58;7.47;;;4.37;;
10880;SDS011;5493;48.884;8.338;2022-11-14T01:06:25;8.63;;;5.20;;
10880;SDS011;5493;48.884;8.338;2022-11-14T01:08:51;6.57;;;4.63;;
10880;SDS011;5493;48.884;8.338;2022-11-14T01:11:19;8.80;;;5.03;;
10880;SDS011;5493;48.884;8.338;2022-11-14T01:13:46;8.07;;;5.00;;
10880;SDS011;5493;48.884;8.338;2022-11-14T01:16:15;7.83;;;5.00;;
10880;SDS011;5493;48.884;8.338;2022-11-14T01:18:43;7.90;;;4.83;;
10880;SDS011;5493;48.884;8.338;2022-11-14T01:21:10;6.33;;;4.30;;
10880;SDS011;5493;48.884;8.338;2022-11-14T01:23:38;6.70;;;4.17;;
10880;SDS011;5493;48.884;8.338;2022-11-14T01:26:06;6.77;;;4.40;;
10880;SDS011;5493;48.884;8.338;2022-11-14T01:28:34;6.53;;;4.23;;
10880;SDS011;5493;48.884;8.338;2022-11-14T01:31:08;7.30;;;4.37;;
10880;SDS011;5493;48.884;8.338;2022-11-14T01:33:37;6.50;;;3.83;;
10880;SDS011;5493;48.884;8.338;2022-11-14T01:36:04;7.20;;;4.07;;
10880;SDS011;5493;48.884;8.338;2022-11-14T01:38:32;6.20;;;4.00;;
10880;SDS011;5493;48.884;8.338;2022-11-14T01:40:58;5.57;;;3.93;;
10880;SDS011;5493;48.884;8.338;2022-11-14T01:43:27;6.93;;;4.20;;
10880;SDS011;5493;48.884;8.338;2022-11-14T01:45:56;7.07;;;4.30;;
10880;SDS011;5493;48.884;8.338;2022-11-14T01:48:27;7.83;;;4.20;;
10880;SDS011;5493;48.884;8.338;2022-11-14T01:51:00;7.43;;;4.13;;
10880;SDS011;5493;48.884;8.338;2022-11-14T01:53:30;6.27;;;4.03;;
10880;SDS011;5493;48.884;8.338;2022-11-14T01:55:58;5.40;;;3.97;;
10880;SDS011;5493;48.884;8.338;2022-11-14T01:58:27;5.93;;;4.37;;
10880;SDS011;5493;48.884;8.338;2022-11-14T02:00:56;5.67;;;4.07;;
10880;SDS011;5493;48.884;8.338;2022-11-14T02:03:23;6.83;;;4.10;;
10880;SDS011;5493;48.884;8.338;2022-11-14T02:05:49;6.23;;;3.73;;
10880;SDS011;5493;48.884;8.338;2022-11-14T02:08:19;5.90;;;3.97;;
10880;SDS011;5493;48.884;8.338;2022-11-14T02:10:47;6.37;;;4.03;;
10880;SDS011;5493;48.884;8.338;2022-11-14T02:13:13;8.07;;;4.47;;
10880;SDS011;5493;48.884;8.338;2022-11-14T02:15:40;5.23;;;3.80;;
10880;SDS011;5493;48.884;8.338;2022-11-14T02:18:07;6.33;;;3.53;;
10880;SDS011;5493;48.884;8.338;2022-11-14T02:20:36;6.30;;;3.93;;
10880;SDS011;5493;48.884;8.338;2022-11-14T02:23:07;5.87;;;3.53;;
10880;SDS011;5493;48.884;8.338;2022-11-14T02:25:34;5.70;;;3.80;;
10880;SDS011;5493;48.884;8.338;2022-11-14T02:28:02;5.83;;;3.77;;
10880;SDS011;5493;48.884;8.338;2022-11-14T02:30:30;5.43;;;3.73;;
10880;SDS011;5493;48.884;8.338;2022-11-14T02:32:56;6.23;;;3.60;;
10880;SDS011;5493;48.884;8.338;2022-11-14T02:35:23;5.83;;;3.80;;
10880;SDS011;5493;48.884;8.338;2022-11-14T02:37:51;5.83;;;3.80;;
10880;SDS011;5493;48.884;8.338;2022-11-14T02:40:17;5.77;;;3.93;;
10880;SDS011;5493;48.884;8.338;2022-11-14T02:42:44;5.80;;;3.60;;
10880;SDS011;5493;48.884;8.338;2022-11-14T02:45:10;6.40;;;3.80;;
10880;SDS011;5493;48.884;8.338;2022-11-14T02:47:38;7.07;;;3.90;;
10880;SDS011;5493;48.884;8.338;2022-11-14T02:50:05;5.20;;;3.40;;
10880;SDS011;5493;48.884;8.338;2022-11-14T02:52:32;6.70;;;3.97;;
10880;SDS011;5493;48.884;8.338;2022-11-14T02:54:59;8.77;;;3.80;;
10880;SDS011;5493;48.884;8.338;2022-11-14T02:57:26;4.57;;;3.23;;
10880;SDS011;5493;48.884;8.338;2022-11-14T02:59:52;6.43;;;4.00;;
10880;SDS011;5493;48.884;8.338;2022-11-14T03:02:19;5.07;;;3.53;;
10880;SDS011;5493;48.884;8.338;2022-11-14T03:04:46;5.77;;;4.00;;
10880;SDS011;5493;48.884;8.338;2022-11-14T03:07:12;5.30;;;3.73;;
10880;SDS011;5493;48.884;8.338;2022-11-14T03:09:39;5.87;;;3.53;;
10880;SDS011;5493;48.884;8.338;2022-11-14T03:12:07;6.07;;;3.90;;
10880;SDS011;5493;48.884;8.338;2022-11-14T03:14:34;5.77;;;3.83;;
10880;SDS011;5493;48.884;8.338;2022-11-14T03:17:01;6.10;;;4.13;;
10880;SDS011;5493;48.884;8.338;2022-11-14T03:19:27;6.23;;;4.10;;
10880;SDS011;5493;48.884;8.338;2022-11-14T03:21:54;5.33;;;3.83;;
10880;SDS011;5493;48.884;8.338;2022-11-14T03:24:20;5.77;;;3.47;;
10880;SDS011;5493;48.884;8.338;2022-11-14T03:26:47;5.73;;;3.67;;
10880;SDS011;5493;48.884;8.338;2022-11-14T03:29:15;5.77;;;3.60;;
10880;SDS011;5493;48.884;8.338;2022-11-14T03:31:41;6.00;;;3.43;;
10880;SDS011;5493;48.884;8.338;2022-11-14T03:34:08;5.40;;;3.10;;
10880;SDS011;5493;48.884;8.338;2022-11-14T03:36:35;5.60;;;3.33;;
10880;SDS011;5493;48.884;8.338;2022-11-14T03:39:03;5.63;;;3.20;;
10880;SDS011;5493;48.884;8.338;2022-11-14T03:41:30;5.13;;;3.10;;
10880;SDS011;5493;48.884;8.338;2022-11-14T03:43:57;4.50;;;3.20;;
10880;SDS011;5493;48.884;8.338;2022-11-14T03:46:25;4.80;;;3.30;;
10880;SDS011;5493;48.884;8.338;2022-11-14T03:48:52;4.27;;;3.13;;
10880;SDS011;5493;48.884;8.338;2022-11-14T03:51:18;4.70;;;3.03;;
10880;SDS011;5493;48.884;8.338;2022-11-14T03:53:45;5.00;;;2.93;;
10880;SDS011;5493;48.884;8.338;2022-11-14T03:56:11;4.20;;;2.93;;
10880;SDS011;5493;48.884;8.338;2022-11-14T03:58:38;5.90;;;3.30;;
10880;SDS011;5493;48.884;8.338;2022-11-14T04:01:05;3.43;;;2.60;;
10880;SDS011;5493;48.884;8.338;2022-11-14T04:03:33;4.57;;;2.90;;
10880;SDS011;5493;48.884;8.338;2022-11-14T04:05:59;6.70;;;4.07;;
10880;SDS011;5493;48.884;8.338;2022-11-14T04:08:27;7.93;;;4.50;;
10880;SDS011;5493;48.884;8.338;2022-11-14T04:10:53;7.27;;;4.47;;
10880;SDS011;5493;48.884;8.338;2022-11-14T04:13:20;4.10;;;3.13;;
10880;SDS011;5493;48.884;8.338;2022-11-14T04:15:52;6.67;;;3.07;;
10880;SDS011;5493;48.884;8.338;2022-11-14T04:18:20;5.37;;;3.30;;
10880;SDS011;5493;48.884;8.338;2022-11-14T04:20:48;3.97;;;2.87;;
10880;SDS011;5493;48.884;8.338;2022-11-14T04:23:14;5.67;;;3.47;;
10880;SDS011;5493;48.884;8.338;2022-11-14T04:25:41;5.10;;;3.70;;
10880;SDS011;5493;48.884;8.338;2022-11-14T04:28:08;6.77;;;4.00;;
10880;SDS011;5493;48.884;8.338;2022-11-14T04:30:35;6.07;;;3.53;;
10880;SDS011;5493;48.884;8.338;2022-11-14T04:33:01;6.20;;;3.47;;
10880;SDS011;5493;48.884;8.338;2022-11-14T04:35:28;4.77;;;3.37;;
10880;SDS011;5493;48.884;8.338;2022-11-14T04:37:56;4.10;;;2.90;;
10880;SDS011;5493;48.884;8.338;2022-11-14T04:40:23;3.00;;;2.43;;
10880;SDS011;5493;48.884;8.338;2022-11-14T04:42:49;4.67;;;3.10;;
10880;SDS011;5493;48.884;8.338;2022-11-14T04:45:16;3.57;;;2.90;;
10880;SDS011;5493;48.884;8.338;2022-11-14T04:47:42;3.17;;;2.87;;
10880;SDS011;5493;48.884;8.338;2022-11-14T04:50:09;5.93;;;3.57;;
10880;SDS011;5493;48.884;8.338;2022-11-14T04:52:36;4.90;;;3.50;;
10880;SDS011;5493;48.884;8.338;2022-11-14T04:55:04;4.37;;;3.23;;
10880;SDS011;5493;48.884;8.338;2022-11-14T04:57:31;4.57;;;3.53;;
10880;SDS011;5493;48.884;8.338;2022-11-14T04:59:57;7.03;;;3.63;;
10880;SDS011;5493;48.884;8.338;2022-11-14T05:02:24;6.43;;;4.00;;
10880;SDS011;5493;48.884;8.338;2022-11-14T05:04:50;6.43;;;4.10;;
10880;SDS011;5493;48.884;8.338;2022-11-14T05:07:17;7.20;;;3.67;;
10880;SDS011;5493;48.884;8.338;2022-11-14T05:09:43;5.50;;;3.50;;
10880;SDS011;5493;48.884;8.338;2022-11-14T05:12:11;5.77;;;3.77;;
10880;SDS011;5493;48.884;8.338;2022-11-14T05:14:38;4.90;;;3.60;;
10880;SDS011;5493;48.884;8.338;2022-11-14T05:17:04;5.53;;;3.70;;
10880;SDS011;5493;48.884;8.338;2022-11-14T05:19:31;7.83;;;4.03;;
10880;SDS011;5493;48.884;8.338;2022-11-14T05:21:57;6.23;;;4.17;;
10880;SDS011;5493;48.884;8.338;2022-11-14T05:24:24;5.40;;;4.03;;
10880;SDS011;5493;48.884;8.338;2022-11-14T05:26:52;7.57;;;4.13;;
10880;SDS011;5493;48.884;8.338;2022-11-14T05:29:20;6.37;;;4.30;;
10880;SDS011;5493;48.884;8.338;2022-11-14T05:31:47;5.23;;;4.17;;
10880;SDS011;5493;48.884;8.338;2022-11-14T05:34:13;5.50;;;4.07;;
10880;SDS011;5493;48.884;8.338;2022-11-14T05:36:40;8.93;;;4.83;;
10880;SDS011;5493;48.884;8.338;2022-11-14T05:39:06;9.60;;;5.07;;
10880;SDS011;5493;48.884;8.338;2022-11-14T05:41:33;7.47;;;3.73;;
10880;SDS011;5493;48.884;8.338;2022-11-14T05:43:59;7.13;;;3.93;;
10880;SDS011;5493;48.884;8.338;2022-11-14T05:46:27;31.73;;;14.97;;
10880;SDS011;5493;48.884;8.338;2022-11-14T05:48:54;16.73;;;9.20;;
10880;SDS011;5493;48.884;8.338;2022-11-14T05:51:20;10.10;;;6.00;;
10880;SDS011;5493;48.884;8.338;2022-11-14T05:53:47;13.53;;;7.03;;
10880;SDS011;5493;48.884;8.338;2022-11-14T05:56:13;8.27;;;5.77;;
10880;SDS011;5493;48.884;8.338;2022-11-14T05:58:40;7.30;;;4.90;;
10880;SDS011;5493;48.884;8.338;2022-11-14T06:01:07;7.63;;;4.13;;
10880;SDS011;5493;48.884;8.338;2022-11-14T06:03:38;5.90;;;3.87;;
10880;SDS011;5493;48.884;8.338;2022-11-14T06:06:07;6.23;;;4.03;;
10880;SDS011;5493;48.884;8.338;2022-11-14T06:08:35;5.17;;;3.60;;
10880;SDS011;5493;48.884;8.338;2022-11-14T06:11:02;5.07;;;3.67;;
10880;SDS011;5493;48.884;8.338;2022-11-14T06:13:31;2.87;;;2.57;;
10880;SDS011;5493;48.884;8.338;2022-11-14T06:15:58;3.17;;;2.80;;
10880;SDS011;5493;48.884;8.338;2022-11-14T06:18:26;3.00;;;2.63;;
10880;SDS011;5493;48.884;8.338;2022-11-14T06:20:54;2.83;;;2.30;;
10880;SDS011;5493;48.884;8.338;2022-11-14T06:23:24;2.70;;;2.40;;
10880;SDS011;5493;48.884;8.338;2022-11-14T06:25:51;3.20;;;2.57;;
10880;SDS011;5493;48.884;8.338;2022-11-14T06:28:17;3.37;;;2.50;;
10880;SDS011;5493;48.884;8.338;2022-11-14T06:30:44;3.60;;;2.70;;
10880;SDS011;5493;48.884;8.338;2022-11-14T06:33:11;3.80;;;2.67;;
10880;SDS011;5493;48.884;8.338;2022-11-14T06:35:37;5.20;;;2.57;;
10880;SDS011;5493;48.884;8.338;2022-11-14T06:38:05;2.87;;;2.33;;
10880;SDS011;5493;48.884;8.338;2022-11-14T06:40:31;4.27;;;3.00;;
10880;SDS011;5493;48.884;8.338;2022-11-14T06:42:58;3.37;;;2.53;;
10880;SDS011;5493;48.884;8.338;2022-11-14T06:45:25;3.90;;;2.77;;
10880;SDS011;5493;48.884;8.338;2022-11-14T06:47:51;5.00;;;3.47;;
10880;SDS011;5493;48.884;8.338;2022-11-14T06:50:18;5.80;;;4.67;;
10880;SDS011;5493;48.884;8.338;2022-11-14T06:52:44;4.07;;;2.90;;
10880;SDS011;5493;48.884;8.338;2022-11-14T06:55:12;3.63;;;2.70;;
10880;SDS011;5493;48.884;8.338;2022-11-14T06:57:39;3.20;;;2.67;;
10880;SDS011;5493;48.884;8.338;2022-11-14T07:00:06;3.97;;;2.80;;
10880;SDS011;5493;48.884;8.338;2022-11-14T07:02:33;3.00;;;2.37;;
10880;SDS011;5493;48.884;8.338;2022-11-14T07:05:00;4.23;;;2.60;;
10880;SDS011;5493;48.884;8.338;2022-11-14T07:07:26;3.40;;;2.90;;
10880;SDS011;5493;48.884;8.338;2022-11-14T07:09:53;3.10;;;2.53;;
10880;SDS011;5493;48.884;8.338;2022-11-14T07:12:21;5.50;;;2.97;;
10880;SDS011;5493;48.884;8.338;2022-11-14T07:14:48;4.07;;;2.93;;
10880;SDS011;5493;48.884;8.338;2022-11-14T07:17:15;5.77;;;3.03;;
10880;SDS011;5493;48.884;8.338;2022-11-14T07:19:41;5.47;;;3.70;;
10880;SDS011;5493;48.884;8.338;2022-11-14T07:22:08;6.80;;;4.50;;
10880;SDS011;5493;48.884;8.338;2022-11-14T07:24:34;7.63;;;4.97;;
10880;SDS011;5493;48.884;8.338;2022-11-14T07:27:01;8.23;;;5.13;;
10880;SDS011;5493;48.884;8.338;2022-11-14T07:29:33;8.97;;;5.00;;
10880;SDS011;5493;48.884;8.338;2022-11-14T07:32:00;6.67;;;4.67;;
10880;SDS011;5493;48.884;8.338;2022-11-14T07:34:27;7.47;;;4.80;;
10880;SDS011;5493;48.884;8.338;2022-11-14T07:36:53;7.27;;;4.50;;
10880;SDS011;5493;48.884;8.338;2022-11-14T07:39:20;7.40;;;4.70;;
10880;SDS011;5493;48.884;8.338;2022-11-14T07:41:46;7.00;;;4.73;;
10880;SDS011;5493;48.884;8.338;2022-11-14T07:44:13;9.37;;;5.53;;
10880;SDS011;5493;48.884;8.338;2022-11-14T07:46:41;9.83;;;5.50;;
10880;SDS011;5493;48.884;8.338;2022-11-14T07:49:07;9.97;;;6.37;;
10880;SDS011;5493;48.884;8.338;2022-11-14T07:51:34;8.93;;;5.70;;
10880;SDS011;5493;48.884;8.338;2022-11-14T07:54:01;8.17;;;5.73;;
10880;SDS011;5493;48.884;8.338;2022-11-14T07:56:28;8.37;;;5.37;;
10880;SDS011;5493;48.884;8.338;2022-11-14T07:58:55;9.93;;;5.50;;
10880;SDS011;5493;48.884;8.338;2022-11-14T08:01:22;8.93;;;5.40;;
10880;SDS011;5493;48.884;8.338;2022-11-14T08:03:50;10.57;;;5.73;;
10880;SDS011;5493;48.884;8.338;2022-11-14T08:06:16;8.43;;;4.90;;
10880;SDS011;5493;48.884;8.338;2022-11-14T08:08:43;9.00;;;5.10;;
10880;SDS011;5493;48.884;8.338;2022-11-14T08:11:09;7.57;;;5.20;;
10880;SDS011;5493;48.884;8.338;2022-11-14T08:13:36;8.07;;;4.80;;
10880;SDS011;5493;48.884;8.338;2022-11-14T08:16:03;7.33;;;4.80;;
10880;SDS011;5493;48.884;8.338;2022-11-14T08:18:31;9.27;;;4.97;;
10880;SDS011;5493;48.884;8.338;2022-11-14T08:20:59;7.13;;;5.20;;
10880;SDS011;5493;48.884;8.338;2022-11-14T08:23:29;6.93;;;4.73;;
10880;SDS011;5493;48.884;8.338;2022-11-14T08:25:56;9.90;;;4.67;;
10880;SDS011;5493;48.884;8.338;2022-11-14T08:28:23;7.57;;;4.40;;
10880;SDS011;5493;48.884;8.338;2022-11-14T08:30:50;6.30;;;4.33;;
10880;SDS011;5493;48.884;8.338;2022-11-14T08:33:17;4.83;;;3.80;;
10880;SDS011;5493;48.884;8.338;2022-11-14T08:35:43;5.63;;;3.93;;
10880;SDS011;5493;48.884;8.338;2022-11-14T08:38:11;6.10;;;3.73;;
10880;SDS011;5493;48.884;8.338;2022-11-14T08:40:38;6.80;;;4.17;;
10880;SDS011;5493;48.884;8.338;2022-11-14T08:43:04;7.77;;;5.03;;
10880;SDS011;5493;48.884;8.338;2022-11-14T08:45:31;7.10;;;4.27;;
10880;SDS011;5493;48.884;8.338;2022-11-14T08:47:57;6.03;;;4.00;;
10880;SDS011;5493;48.884;8.338;2022-11-14T08:50:24;5.43;;;4.23;;
10880;SDS011;5493;48.884;8.338;2022-11-14T08:52:51;5.67;;;4.30;;
10880;SDS011;5493;48.884;8.338;2022-11-14T08:55:19;7.57;;;4.70;;
10880;SDS011;5493;48.884;8.338;2022-11-14T08:57:45;7.83;;;4.50;;
10880;SDS011;5493;48.884;8.338;2022-11-14T09:00:13;8.00;;;4.73;;
10880;SDS011;5493;48.884;8.338;2022-11-14T09:02:40;6.47;;;4.60;;
10880;SDS011;5493;48.884;8.338;2022-11-14T09:05:07;6.37;;;4.67;;
10880;SDS011;5493;48.884;8.338;2022-11-14T09:07:34;5.83;;;4.30;;
10880;SDS011;5493;48.884;8.338;2022-11-14T09:10:01;6.50;;;4.63;;
10880;SDS011;5493;48.884;8.338;2022-11-14T09:12:29;6.70;;;4.30;;
10880;SDS011;5493;48.884;8.338;2022-11-14T09:14:55;7.00;;;4.67;;
10880;SDS011;5493;48.884;8.338;2022-11-14T09:17:22;5.73;;;4.50;;
10880;SDS011;5493;48.884;8.338;2022-11-14T09:19:48;6.60;;;4.53;;
10880;SDS011;5493;48.884;8.338;2022-11-14T09:22:15;6.87;;;3.97;;
10880;SDS011;5493;48.884;8.338;2022-11-14T09:24:43;5.43;;;4.63;;
10880;SDS011;5493;48.884;8.338;2022-11-14T09:27:11;9.53;;;4.70;;
10880;SDS011;5493;48.884;8.338;2022-11-14T09:29:39;7.80;;;4.83;;
10880;SDS011;5493;48.884;8.338;2022-11-14T09:32:06;5.90;;;4.43;;
10880;SDS011;5493;48.884;8.338;2022-11-14T09:34:33;7.73;;;4.67;;
10880;SDS011;5493;48.884;8.338;2022-11-14T09:37:01;6.27;;;4.33;;
10880;SDS011;5493;48.884;8.338;2022-11-14T09:39:27;5.50;;;3.80;;
10880;SDS011;5493;48.884;8.338;2022-11-14T09:41:57;6.73;;;4.30;;
10880;SDS011;5493;48.884;8.338;2022-11-14T09:44:47;8.00;;;4.70;;
10880;SDS011;5493;48.884;8.338;2022-11-14T09:47:18;7.53;;;4.80;;
10880;SDS011;5493;48.884;8.338;2022-11-14T09:49:50;9.87;;;5.33;;
10880;SDS011;5493;48.884;8.338;2022-11-14T09:52:25;6.10;;;4.10;;
10880;SDS011;5493;48.884;8.338;2022-11-14T09:54:56;7.23;;;4.23;;
10880;SDS011;5493;48.884;8.338;2022-11-14T09:57:25;6.87;;;4.40;;
10880;SDS011;5493;48.884;8.338;2022-11-14T09:59:54;7.67;;;5.47;;
10880;SDS011;5493;48.884;8.338;2022-11-14T10:02:39;4.90;;;3.73;;
10880;SDS011;5493;48.884;8.338;2022-11-14T10:05:20;5.33;;;3.63;;
10880;SDS011;5493;48.884;8.338;2022-11-14T10:10:57;5.57;;;3.97;;
10880;SDS011;5493;48.884;8.338;2022-11-14T10:13:31;4.97;;;3.77;;
10880;SDS011;5493;48.884;8.338;2022-11-14T10:16:14;5.57;;;4.37;;
10880;SDS011;5493;48.884;8.338;2022-11-14T10:18:50;5.50;;;3.40;;
10880;SDS011;5493;48.884;8.338;2022-11-14T10:21:37;5.40;;;3.93;;
10880;SDS011;5493;48.884;8.338;2022-11-14T10:24:15;7.10;;;4.37;;
10880;SDS011;5493;48.884;8.338;2022-11-14T10:26:54;4.83;;;3.77;;
10880;SDS011;5493;48.884;8.338;2022-11-14T10:29:30;5.20;;;3.93;;
10880;SDS011;5493;48.884;8.338;2022-11-14T10:32:09;4.67;;;3.40;;
10880;SDS011;5493;48.884;8.338;2022-11-14T10:34:44;6.50;;;4.20;;
10880;SDS011;5493;48.884;8.338;2022-11-14T10:37:17;5.63;;;3.60;;
10880;SDS011;5493;48.884;8.338;2022-11-14T10:39:49;7.13;;;4.00;;
10880;SDS011;5493;48.884;8.338;2022-11-14T10:42:19;5.03;;;3.43;;
10880;SDS011;5493;48.884;8.338;2022-11-14T10:44:52;6.30;;;3.87;;
10880;SDS011;5493;48.884;8.338;2022-11-14T10:47:29;5.37;;;3.90;;
10880;SDS011;5493;48.884;8.338;2022-11-14T10:50:11;5.33;;;3.93;;
10880;SDS011;5493;48.884;8.338;2022-11-14T10:52:43;4.20;;;3.70;;
10880;SDS011;5493;48.884;8.338;2022-11-14T10:55:12;6.17;;;4.30;;
10880;SDS011;5493;48.884;8.338;2022-11-14T10:57:40;5.60;;;4.03;;
10880;SDS011;5493;48.884;8.338;2022-11-14T11:00:11;6.03;;;3.97;;
10880;SDS011;5493;48.884;8.338;2022-11-14T11:02:48;4.37;;;3.53;;
10880;SDS011;5493;48.884;8.338;2022-11-14T11:05:17;5.17;;;4.17;;
10880;SDS011;5493;48.884;8.338;2022-11-14T11:07:46;5.07;;;3.90;;
10880;SDS011;5493;48.884;8.338;2022-11-14T11:10:31;5.73;;;4.37;;
10880;SDS011;5493;48.884;8.338;2022-11-14T11:13:27;6.03;;;4.27;;
10880;SDS011;5493;48.884;8.338;2022-11-14T11:15:57;5.80;;;4.00;;
10880;SDS011;5493;48.884;8.338;2022-11-14T11:18:27;4.87;;;3.93;;
10880;SDS011;5493;48.884;8.338;2022-11-14T11:21:06;6.00;;;4.03;;
10880;SDS011;5493;48.884;8.338;2022-11-14T11:23:34;7.13;;;4.20;;
10880;SDS011;5493;48.884;8.338;2022-11-14T11:26:02;5.33;;;3.57;;
10880;SDS011;5493;48.884;8.338;2022-11-14T11:28:33;6.33;;;4.20;;
10880;SDS011;5493;48.884;8.338;2022-11-14T11:31:01;6.20;;;4.90;;
10880;SDS011;5493;48.884;8.338;2022-11-14T11:33:31;6.00;;;4.33;;
10880;SDS011;5493;48.884;8.338;2022-11-14T11:35:59;5.17;;;3.77;;
10880;SDS011;5493;48.884;8.338;2022-11-14T11:38:29;6.47;;;4.17;;
10880;SDS011;5493;48.884;8.338;2022-11-14T11:40:58;5.90;;;4.20;;
10880;SDS011;5493;48.884;8.338;2022-11-14T11:43:33;10.50;;;6.00;;
10880;SDS011;5493;48.884;8.338;2022-11-14T11:46:05;8.33;;;5.50;;
10880;SDS011;5493;48.884;8.338;2022-11-14T11:48:39;8.83;;;5.10;;
10880;SDS011;5493;48.884;8.338;2022-11-14T11:51:09;6.53;;;5.20;;
10880;SDS011;5493;48.884;8.338;2022-11-14T11:53:41;7.47;;;4.97;;
10880;SDS011;5493;48.884;8.338;2022-11-14T11:56:12;7.70;;;5.33;;
10880;SDS011;5493;48.884;8.338;2022-11-14T11:58:43;7.87;;;5.37;;
10880;SDS011;5493;48.884;8.338;2022-11-14T12:01:12;6.67;;;5.00;;
10880;SDS011;5493;48.884;8.338;2022-11-14T12:03:41;7.23;;;5.73;;
10880;SDS011;5493;48.884;8.338;2022-11-14T12:06:13;8.13;;;5.80;;
10880;SDS011;5493;48.884;8.338;2022-11-14T12:08:44;10.07;;;6.03;;
10880;SDS011;5493;48.884;8.338;2022-11-14T12:11:17;11.03;;;7.83;;
10880;SDS011;5493;48.884;8.338;2022-11-14T12:13:52;10.47;;;6.67;;
10880;SDS011;5493;48.884;8.338;2022-11-14T12:16:33;9.50;;;6.77;;
10880;SDS011;5493;48.884;8.338;2022-11-14T12:19:20;7.90;;;5.93;;
10880;SDS011;5493;48.884;8.338;2022-11-14T12:22:11;9.07;;;5.33;;
10880;SDS011;5493;48.884;8.338;2022-11-14T12:25:03;6.23;;;4.93;;
10880;SDS011;5493;48.884;8.338;2022-11-14T12:27:57;7.67;;;5.83;;
10880;SDS011;5493;48.884;8.338;2022-11-14T12:30:35;11.27;;;8.00;;
10880;SDS011;5493;48.884;8.338;2022-11-14T12:33:06;9.63;;;6.10;;
10880;SDS011;5493;48.884;8.338;2022-11-14T12:35:38;7.73;;;4.77;;
10880;SDS011;5493;48.884;8.338;2022-11-14T12:38:15;6.57;;;5.03;;
10880;SDS011;5493;48.884;8.338;2022-11-14T12:40:47;6.33;;;5.10;;
10880;SDS011;5493;48.884;8.338;2022-11-14T12:46:07;13.53;;;8.23;;
10880;SDS011;5493;48.884;8.338;2022-11-14T12:48:37;10.57;;;6.80;;
10880;SDS011;5493;48.884;8.338;2022-11-14T12:54:08;7.40;;;4.93;;
10880;SDS011;5493;48.884;8.338;2022-11-14T12:57:08;8.40;;;5.63;;
10880;SDS011;5493;48.884;8.338;2022-11-14T13:00:00;8.87;;;5.60;;
10880;SDS011;5493;48.884;8.338;2022-11-14T13:02:41;9.80;;;6.63;;
10880;SDS011;5493;48.884;8.338;2022-11-14T13:05:47;10.00;;;6.70;;
10880;SDS011;5493;48.884;8.338;2022-11-14T13:08:29;9.80;;;7.00;;
10880;SDS011;5493;48.884;8.338;2022-11-14T13:11:33;7.50;;;5.60;;
10880;SDS011;5493;48.884;8.338;2022-11-14T13:14:19;6.73;;;5.17;;
10880;SDS011;5493;48.884;8.338;2022-11-14T13:17:23;7.63;;;5.10;;
10880;SDS011;5493;48.884;8.338;2022-11-14T13:20:24;8.80;;;5.50;;
10880;SDS011;5493;48.884;8.338;2022-11-14T13:35:48;7.50;;;5.57;;
10880;SDS011;5493;48.884;8.338;2022-11-14T13:41:30;10.13;;;6.13;;
10880;SDS011;5493;48.884;8.338;2022-11-14T13:44:15;8.57;;;4.93;;
10880;SDS011;5493;48.884;8.338;2022-11-14T13:47:05;6.00;;;4.80;;
10880;SDS011;5493;48.884;8.338;2022-11-14T13:49:52;7.80;;;5.67;;
10880;SDS011;5493;48.884;8.338;2022-11-14T13:52:25;9.03;;;5.70;;
10880;SDS011;5493;48.884;8.338;2022-11-14T13:54:56;8.33;;;5.27;;
10880;SDS011;5493;48.884;8.338;2022-11-14T13:57:25;8.53;;;4.93;;
10880;SDS011;5493;48.884;8.338;2022-11-14T14:00:02;7.73;;;5.40;;
10880;SDS011;5493;48.884;8.338;2022-11-14T14:02:49;8.80;;;5.60;;
10880;SDS011;5493;48.884;8.338;2022-11-14T14:05:28;6.40;;;4.70;;
10880;SDS011;5493;48.884;8.338;2022-11-14T14:08:06;5.87;;;4.53;;
10880;SDS011;5493;48.884;8.338;2022-11-14T14:10:40;5.43;;;4.03;;
10880;SDS011;5493;48.884;8.338;2022-11-14T14:13:17;6.33;;;4.87;;
10880;SDS011;5493;48.884;8.338;2022-11-14T14:16:00;7.03;;;5.07;;
10880;SDS011;5493;48.884;8.338;2022-11-14T14:18:34;7.87;;;4.63;;
10880;SDS011;5493;48.884;8.338;2022-11-14T14:21:12;5.50;;;4.57;;
10880;SDS011;5493;48.884;8.338;2022-11-14T14:23:50;6.60;;;4.37;;
10880;SDS011;5493;48.884;8.338;2022-11-14T14:26:22;7.93;;;5.17;;
10880;SDS011;5493;48.884;8.338;2022-11-14T14:28:57;7.40;;;5.20;;
10880;SDS011;5493;48.884;8.338;2022-11-14T14:31:32;7.07;;;5.10;;
10880;SDS011;5493;48.884;8.338;2022-11-14T14:34:01;7.97;;;5.30;;
10880;SDS011;5493;48.884;8.338;2022-11-14T14:36:48;12.03;;;7.23;;
10880;SDS011;5493;48.884;8.338;2022-11-14T14:39:16;7.97;;;5.60;;
10880;SDS011;5493;48.884;8.338;2022-11-14T14:41:44;12.90;;;7.57;;
10880;SDS011;5493;48.884;8.338;2022-11-14T14:44:16;10.07;;;6.50;;
10880;SDS011;5493;48.884;8.338;2022-11-14T14:46:48;9.23;;;6.47;;
10880;SDS011;5493;48.884;8.338;2022-11-14T14:49:17;9.13;;;6.03;;
10880;SDS011;5493;48.884;8.338;2022-11-14T14:51:46;9.90;;;7.07;;
10880;SDS011;5493;48.884;8.338;2022-11-14T14:54:18;10.37;;;7.07;;
10880;SDS011;5493;48.884;8.338;2022-11-14T14:56:51;7.37;;;5.23;;
10880;SDS011;5493;48.884;8.338;2022-11-14T14:59:20;7.77;;;4.90;;
10880;SDS011;5493;48.884;8.338;2022-11-14T15:01:49;6.53;;;4.70;;
10880;SDS011;5493;48.884;8.338;2022-11-14T15:04:17;7.93;;;5.80;;
10880;SDS011;5493;48.884;8.338;2022-11-14T15:06:46;7.03;;;4.90;;
10880;SDS011;5493;48.884;8.338;2022-11-14T15:09:14;5.80;;;4.67;;
10880;SDS011;5493;48.884;8.338;2022-11-14T15:11:45;5.70;;;4.63;;
10880;SDS011;5493;48.884;8.338;2022-11-14T15:14:15;5.63;;;4.30;;
10880;SDS011;5493;48.884;8.338;2022-11-14T15:16:44;6.37;;;4.57;;
10880;SDS011;5493;48.884;8.338;2022-11-14T15:19:15;7.17;;;5.23;;
10880;SDS011;5493;48.884;8.338;2022-11-14T15:21:44;5.97;;;4.20;;
10880;SDS011;5493;48.884;8.338;2022-11-14T15:24:12;4.90;;;3.73;;
10880;SDS011;5493;48.884;8.338;2022-11-14T15:26:41;3.90;;;3.50;;
10880;SDS011;5493;48.884;8.338;2022-11-14T15:29:13;6.13;;;4.10;;
10880;SDS011;5493;48.884;8.338;2022-11-14T15:31:43;6.07;;;4.07;;
10880;SDS011;5493;48.884;8.338;2022-11-14T15:34:24;5.67;;;4.10;;
10880;SDS011;5493;48.884;8.338;2022-11-14T15:39:47;12.97;;;7.17;;
10880;SDS011;5493;48.884;8.338;2022-11-14T15:42:16;60.17;;;29.50;;
10880;SDS011;5493;48.884;8.338;2022-11-14T15:44:45;29.20;;;17.90;;